createdAt,value
2022-11-13T00:01:41.446Z,55.28
2022-11-13T00:04:26.773Z,58.22
2022-11-13T00:07:11.957Z,53.53
2022-11-13T00:09:57.912Z,61.65
2022-11-13T00:12:43.329Z,51.17
2022-11-13T00:15:29.028Z,56.37
2022-11-13T00:18:14.459Z,53.38
2022-11-13T00:21:06.364Z,57.42
2022-11-13T00:23:52.357Z,51.83
2022-11-13T00:26:39.665Z,50.72
2022-11-13T00:29:24.950Z,51.05
2022-11-13T00:32:10.287Z,51.97
2022-11-13T00:34:55.995Z,52.88
2022-11-13T00:37:41.303Z,48.65
2022-11-13T00:40:26.794Z,51.15
2022-11-13T00:43:12.697Z,55.12
2022-11-13T00:45:58.070Z,50.47
2022-11-13T00:48:43.527Z,52.90
2022-11-13T00:51:28.808Z,48.87
2022-11-13T00:54:14.226Z,50.05
2022-11-13T00:56:59.527Z,51.15
2022-11-13T00:59:44.687Z,43.78
2022-11-13T01:02:29.976Z,53.20
2022-11-13T01:05:15.409Z,48.92
2022-11-13T01:08:00.871Z,48.15
2022-11-13T01:10:53.553Z,47.45
2022-11-13T01:13:43.706Z,48.95
2022-11-13T01:16:29.108Z,50.80
2022-11-13T01:19:14.870Z,52.40
2022-11-13T01:22:00.274Z,46.37
2022-11-13T01:24:45.689Z,45.55
2022-11-13T01:27:32.056Z,54.15
2022-11-13T01:30:17.511Z,53.90
2022-11-13T01:33:03.029Z,51.70
2022-11-13T01:35:48.398Z,51.05
2022-11-13T01:38:37.044Z,54.88
2022-11-13T01:41:23.825Z,58.17
2022-11-13T01:44:13.356Z,53.45
2022-11-13T01:46:58.583Z,54.50
2022-11-13T01:49:45.350Z,56.58
2022-11-13T01:52:36.808Z,55.25
2022-11-13T01:55:22.123Z,46.47
2022-11-13T01:58:09.763Z,50.33
2022-11-13T02:00:55.317Z,49.80
2022-11-13T02:03:40.712Z,44.38
2022-11-13T02:06:30.567Z,45.92
2022-11-13T02:09:20.679Z,46.00
2022-11-13T02:12:08.535Z,43.35
2022-11-13T02:14:55.371Z,47.62
2022-11-13T02:17:48.727Z,45.67
2022-11-13T02:20:54.946Z,47.42
2022-11-13T02:24:18.740Z,48.58
2022-11-13T02:27:08.630Z,46.10
2022-11-13T02:29:53.864Z,42.97
2022-11-13T02:32:52.172Z,50.90
2022-11-13T02:35:38.681Z,46.22
2022-11-13T02:38:24.257Z,45.05
2022-11-13T02:41:10.046Z,44.58
2022-11-13T02:43:55.779Z,46.80
2022-11-13T02:46:41.159Z,47.90
2022-11-13T02:49:26.430Z,46.30
2022-11-13T02:52:11.887Z,39.85
2022-11-13T02:54:57.702Z,63.72
2022-11-13T02:57:43.059Z,133.93
2022-11-13T03:00:28.548Z,78.78
2022-11-13T03:03:13.736Z,116.50
2022-11-13T03:05:59.042Z,55.83
2022-11-13T03:08:44.281Z,41.10
2022-11-13T03:11:29.740Z,32.67
2022-11-13T03:14:15.495Z,36.00
2022-11-13T03:17:01.338Z,34.03
2022-11-13T03:19:46.558Z,33.22
2022-11-13T03:22:32.248Z,29.20
2022-11-13T03:25:18.105Z,36.58
2022-11-13T03:28:03.558Z,33.50
2022-11-13T03:30:48.785Z,34.90
2022-11-13T03:33:34.260Z,34.33
2022-11-13T03:36:20.441Z,29.08
2022-11-13T03:39:06.072Z,32.25
2022-11-13T03:41:51.545Z,36.50
2022-11-13T03:44:36.838Z,37.45
2022-11-13T03:47:22.118Z,34.58
2022-11-13T03:50:07.708Z,33.67
2022-11-13T03:52:53.468Z,31.35
2022-11-13T03:55:39.283Z,36.85
2022-11-13T03:58:24.649Z,37.92
2022-11-13T04:01:10.503Z,33.08
2022-11-13T04:03:55.794Z,34.78
2022-11-13T04:06:41.246Z,37.38
2022-11-13T04:09:26.692Z,37.58
2022-11-13T04:12:12.229Z,40.92
2022-11-13T04:14:58.007Z,36.65
2022-11-13T04:17:43.307Z,39.40
2022-11-13T04:20:28.862Z,35.53
2022-11-13T04:23:15.931Z,36.95
2022-11-13T04:26:01.442Z,37.42
2022-11-13T04:28:46.830Z,40.20
2022-11-13T04:31:32.084Z,38.53
2022-11-13T04:34:17.342Z,36.00
2022-11-13T04:37:03.075Z,37.10
2022-11-13T04:39:48.760Z,33.92
2022-11-13T04:42:49.070Z,42.42
2022-11-13T04:45:34.891Z,37.20
2022-11-13T04:48:20.261Z,33.30
2022-11-13T04:51:06.000Z,36.55
2022-11-13T04:53:51.575Z,38.47
2022-11-13T04:56:36.720Z,44.10
2022-11-13T04:59:21.930Z,43.97
2022-11-13T05:02:07.337Z,34.75
2022-11-13T05:04:52.926Z,46.58
2022-11-13T05:07:38.451Z,41.58
2022-11-13T05:10:23.867Z,42.35
2022-11-13T05:13:09.306Z,46.80
2022-11-13T05:16:08.778Z,47.42
2022-11-13T05:18:54.360Z,42.62
2022-11-13T05:21:40.364Z,43.38
2022-11-13T05:24:25.831Z,47.62
2022-11-13T05:27:16.848Z,43.08
2022-11-13T05:30:02.941Z,49.47
2022-11-13T05:32:48.370Z,47.70
2022-11-13T05:35:33.754Z,49.05
2022-11-13T05:38:19.226Z,48.22
2022-11-13T05:41:13.198Z,55.25
2022-11-13T05:43:59.930Z,45.20
2022-11-13T05:46:45.422Z,45.25
2022-11-13T05:49:31.068Z,41.15
2022-11-13T05:52:16.587Z,50.85
2022-11-13T05:55:02.005Z,53.13
2022-11-13T05:57:47.688Z,40.85
2022-11-13T06:00:32.939Z,50.20
2022-11-13T06:03:18.390Z,52.90
2022-11-13T06:06:04.281Z,51.35
2022-11-13T06:08:51.341Z,50.17
2022-11-13T06:11:36.803Z,49.13
2022-11-13T06:14:21.989Z,55.50
2022-11-13T06:17:07.196Z,52.45
2022-11-13T06:19:52.438Z,56.85
2022-11-13T06:22:37.812Z,44.03
2022-11-13T06:25:23.301Z,62.03
2022-11-13T06:28:08.902Z,47.70
2022-11-13T06:30:54.485Z,45.00
2022-11-13T06:33:41.544Z,48.42
2022-11-13T06:36:31.618Z,60.00
2022-11-13T06:39:17.367Z,58.95
2022-11-13T06:42:03.176Z,54.85
2022-11-13T06:44:48.339Z,63.33
2022-11-13T06:47:33.815Z,48.58
2022-11-13T06:50:19.218Z,52.47
2022-11-13T06:53:04.669Z,51.65
2022-11-13T06:55:50.418Z,53.08
2022-11-13T06:58:36.094Z,51.37
2022-11-13T07:01:24.330Z,47.28
2022-11-13T07:04:12.491Z,53.38
2022-11-13T07:06:58.038Z,54.95
2022-11-13T07:09:43.840Z,45.65
2022-11-13T07:12:29.233Z,65.53
2022-11-13T07:15:16.563Z,51.70
2022-11-13T07:18:03.957Z,56.97
2022-11-13T07:20:49.695Z,57.78
2022-11-13T07:23:43.117Z,55.17
2022-11-13T07:26:28.990Z,64.03
2022-11-13T07:29:15.720Z,56.90
2022-11-13T07:32:01.287Z,53.90
2022-11-13T07:34:46.533Z,57.33
2022-11-13T07:37:31.922Z,54.35
2022-11-13T07:40:17.217Z,55.90
2022-11-13T07:43:03.497Z,44.25
2022-11-13T07:45:54.450Z,53.35
2022-11-13T07:48:39.979Z,53.00
2022-11-13T07:51:25.498Z,54.72
2022-11-13T07:54:10.980Z,49.50
2022-11-13T07:56:56.287Z,56.90
2022-11-13T07:59:41.670Z,55.72
2022-11-13T08:02:27.044Z,49.03
2022-11-13T08:05:12.804Z,46.83
2022-11-13T08:07:58.310Z,57.45
2022-11-13T08:10:43.566Z,57.03
2022-11-13T08:13:29.030Z,50.22
2022-11-13T08:16:14.303Z,45.65
2022-11-13T08:18:59.747Z,41.90
2022-11-13T08:21:45.153Z,43.13
2022-11-13T08:24:30.476Z,48.08
2022-11-13T08:27:16.103Z,46.47
2022-11-13T08:30:01.625Z,50.55
2022-11-13T08:32:50.274Z,43.45
2022-11-13T08:35:36.025Z,42.03
2022-11-13T08:38:21.677Z,43.30
2022-11-13T08:41:09.280Z,41.17
2022-11-13T08:43:55.576Z,39.33
2022-11-13T08:46:41.189Z,46.28
2022-11-13T08:49:26.640Z,39.15
2022-11-13T08:52:12.487Z,32.67
2022-11-13T08:54:57.973Z,33.78
2022-11-13T08:57:43.432Z,40.20
2022-11-13T09:00:31.105Z,43.45
2022-11-13T09:03:16.804Z,31.05
2022-11-13T09:06:06.657Z,37.72
2022-11-13T09:08:52.176Z,36.15
2022-11-13T09:11:38.131Z,42.50
2022-11-13T09:14:25.073Z,45.05
2022-11-13T09:17:10.871Z,48.05
2022-11-13T09:19:59.554Z,43.75
2022-11-13T09:22:51.229Z,41.17
2022-11-13T09:25:38.190Z,46.80
2022-11-13T09:28:24.001Z,47.38
2022-11-13T09:31:09.575Z,54.08
2022-11-13T09:33:55.337Z,59.90
2022-11-13T09:36:40.819Z,53.72
2022-11-13T09:39:26.251Z,51.90
2022-11-13T09:42:24.999Z,50.90
2022-11-13T09:45:15.642Z,51.08
2022-11-13T09:48:09.536Z,47.13
2022-11-13T09:50:55.906Z,48.08
2022-11-13T09:53:41.717Z,48.45
2022-11-13T09:56:43.177Z,48.47
2022-11-13T09:59:50.687Z,51.65
2022-11-13T10:02:54.498Z,47.60
2022-11-13T10:05:44.690Z,46.10
2022-11-13T10:08:45.807Z,45.40
2022-11-13T10:11:43.244Z,46.47
2022-11-13T10:14:29.140Z,41.05
2022-11-13T10:17:28.642Z,37.33
2022-11-13T10:20:20.332Z,39.58
2022-11-13T10:23:33.733Z,38.03
2022-11-13T10:26:21.280Z,39.58
2022-11-13T10:29:13.566Z,35.38
2022-11-13T10:31:59.541Z,51.97
2022-11-13T10:34:51.924Z,50.03
2022-11-13T10:37:54.631Z,46.72
2022-11-13T10:40:40.881Z,42.05
2022-11-13T10:43:27.025Z,48.42
2022-11-13T10:46:20.586Z,38.58
2022-11-13T10:49:17.964Z,44.42
2022-11-13T10:52:08.405Z,42.90
2022-11-13T10:55:20.635Z,47.47
2022-11-13T10:58:15.492Z,35.28
2022-11-13T11:01:00.791Z,39.80
2022-11-13T11:03:50.644Z,49.33
2022-11-13T11:09:47.418Z,38.53
2022-11-13T11:12:32.969Z,30.05
2022-11-13T11:15:22.105Z,28.05
2022-11-13T11:18:28.991Z,30.40
2022-11-13T11:21:27.080Z,29.95
2022-11-13T11:24:26.520Z,25.27
2022-11-13T11:27:19.590Z,30.30
2022-11-13T11:30:15.987Z,28.23
2022-11-13T11:33:25.854Z,26.15
2022-11-13T11:36:35.043Z,29.95
2022-11-13T11:39:28.920Z,27.00
2022-11-13T11:42:29.214Z,29.55
2022-11-13T11:45:23.687Z,27.90
2022-11-13T11:48:19.173Z,24.55
2022-11-13T11:51:07.120Z,33.58
2022-11-13T11:53:55.642Z,31.65
2022-11-13T11:56:46.821Z,34.35
2022-11-13T11:59:51.449Z,26.23
2022-11-13T12:02:58.798Z,27.23
2022-11-13T12:06:23.852Z,24.58
2022-11-13T12:09:12.138Z,22.17
2022-11-13T12:12:14.668Z,23.65
2022-11-13T12:15:10.493Z,23.20
2022-11-13T12:18:36.180Z,25.80
2022-11-13T12:24:09.920Z,25.85
2022-11-13T12:26:58.058Z,29.85
2022-11-13T12:30:03.535Z,27.52
2022-11-13T12:33:03.014Z,31.25
2022-11-13T12:35:51.784Z,28.17
2022-11-13T12:38:58.400Z,28.45
2022-11-13T12:42:16.187Z,29.20
2022-11-13T12:45:34.525Z,28.77
2022-11-13T12:48:22.504Z,33.70
2022-11-13T12:51:17.268Z,34.92
2022-11-13T12:54:02.464Z,33.78
2022-11-13T12:56:47.880Z,34.50
2022-11-13T12:59:36.538Z,31.37
2022-11-13T13:02:28.146Z,38.78
2022-11-13T13:05:33.584Z,33.97
2022-11-13T13:08:52.925Z,33.60
2022-11-13T13:12:00.166Z,35.92
2022-11-13T13:15:00.479Z,39.10
2022-11-13T13:17:45.941Z,37.47
2022-11-13T13:20:37.064Z,41.00
2022-11-13T13:23:40.535Z,45.55
2022-11-13T13:26:28.523Z,35.65
2022-11-13T13:29:25.212Z,31.92
2022-11-13T13:32:36.140Z,40.53
2022-11-13T13:35:27.277Z,41.08
2022-11-13T13:38:24.529Z,38.83
2022-11-13T13:41:20.045Z,36.97
2022-11-13T13:44:40.710Z,32.72
2022-11-13T13:47:31.304Z,42.58
2022-11-13T13:50:21.654Z,37.05
2022-11-13T13:53:09.532Z,37.78
2022-11-13T13:55:56.486Z,31.65
2022-11-13T13:58:42.796Z,27.23
2022-11-13T14:01:35.222Z,29.37
2022-11-13T14:04:23.428Z,29.05
2022-11-13T14:07:27.851Z,28.48
2022-11-13T14:10:30.719Z,31.00
2022-11-13T14:13:28.353Z,28.23
2022-11-13T14:16:14.093Z,28.87
2022-11-13T14:19:06.264Z,30.40
2022-11-13T14:22:01.067Z,35.33
2022-11-13T14:24:51.999Z,34.53
2022-11-13T14:27:37.847Z,40.50
2022-11-13T14:30:26.693Z,37.53
2022-11-13T14:33:17.555Z,47.13
2022-11-13T14:36:04.660Z,45.80
2022-11-13T14:38:52.395Z,44.78
2022-11-13T14:41:59.132Z,46.13
2022-11-13T14:44:44.621Z,44.17
2022-11-13T14:47:37.310Z,38.10
2022-11-13T14:50:31.967Z,48.95
2022-11-13T14:53:56.182Z,44.55
2022-11-13T14:56:43.029Z,52.08
2022-11-13T14:59:29.348Z,46.28
2022-11-13T15:02:14.895Z,51.92
2022-11-13T15:05:00.153Z,41.85
2022-11-13T15:07:45.984Z,47.15
2022-11-13T15:10:32.064Z,61.17
2022-11-13T15:13:18.425Z,49.70
2022-11-13T15:16:04.200Z,74.10
2022-11-13T15:19:02.776Z,83.80
2022-11-13T15:22:20.190Z,65.90
2022-11-13T15:24:54.206Z,66.65
2022-11-13T15:27:43.131Z,62.53
2022-11-13T15:30:28.963Z,58.67
2022-11-13T15:33:16.327Z,59.97
2022-11-13T15:36:01.742Z,53.20
2022-11-13T15:38:47.489Z,54.88
2022-11-13T15:41:34.177Z,53.15
2022-11-13T15:44:19.660Z,47.35
2022-11-13T15:47:22.635Z,47.17
2022-11-13T15:50:16.373Z,52.05
2022-11-13T15:53:05.911Z,61.65
2022-11-13T15:55:51.403Z,56.70
2022-11-13T15:58:36.738Z,54.03
2022-11-13T16:01:22.596Z,51.75
2022-11-13T16:04:09.446Z,57.55
2022-11-13T16:06:54.857Z,53.47
2022-11-13T16:09:40.724Z,51.45
2022-11-13T16:12:26.102Z,57.78
2022-11-13T16:15:16.697Z,63.47
2022-11-13T16:18:02.305Z,66.80
2022-11-13T16:20:47.738Z,66.15
2022-11-13T16:23:33.076Z,77.45
2022-11-13T16:26:21.571Z,158.63
2022-11-13T16:29:27.607Z,144.43
2022-11-13T16:32:17.006Z,93.75
2022-11-13T16:35:02.384Z,62.65
2022-11-13T16:37:47.682Z,55.97
2022-11-13T16:40:32.964Z,53.38
2022-11-13T16:43:18.312Z,54.83
2022-11-13T16:46:19.162Z,53.53
2022-11-13T16:49:04.457Z,49.13
2022-11-13T16:51:51.098Z,51.70
2022-11-13T16:54:36.682Z,47.92
2022-11-13T16:57:25.593Z,48.25
2022-11-13T17:00:15.125Z,47.10
2022-11-13T17:03:00.935Z,50.08
2022-11-13T17:05:46.448Z,51.03
2022-11-13T17:08:31.637Z,44.38
2022-11-13T17:11:17.256Z,44.08
2022-11-13T17:14:03.567Z,50.92
2022-11-13T17:16:49.065Z,51.53
2022-11-13T17:19:34.667Z,43.10
2022-11-13T17:22:19.966Z,44.65
2022-11-13T17:25:05.693Z,41.88
2022-11-13T17:27:51.517Z,45.70
2022-11-13T17:30:37.000Z,42.17
2022-11-13T17:33:22.256Z,54.50
2022-11-13T17:36:09.073Z,50.75
2022-11-13T17:38:55.194Z,45.83
2022-11-13T17:41:40.838Z,73.43
2022-11-13T17:44:26.349Z,57.42
2022-11-13T17:47:12.022Z,58.15
2022-11-13T17:50:03.944Z,56.70
2022-11-13T17:52:52.688Z,53.33
2022-11-13T17:55:38.029Z,51.58
2022-11-13T17:58:24.183Z,62.30
2022-11-13T18:01:15.139Z,57.10
2022-11-13T18:04:01.470Z,62.30
2022-11-13T18:06:46.822Z,62.67
2022-11-13T18:09:32.828Z,59.35
2022-11-13T18:12:17.985Z,67.70
2022-11-13T18:15:04.138Z,60.80
2022-11-13T18:17:49.829Z,62.50
2022-11-13T18:20:35.560Z,65.93
2022-11-13T18:23:20.954Z,53.47
2022-11-13T18:26:12.542Z,56.25
2022-11-13T18:28:59.234Z,51.42
2022-11-13T18:31:45.125Z,53.35
2022-11-13T18:34:30.718Z,48.00
2022-11-13T18:37:15.917Z,47.90
2022-11-13T18:40:01.900Z,58.50
2022-11-13T18:42:47.189Z,47.28
2022-11-13T18:45:32.518Z,54.78
2022-11-13T18:48:19.210Z,45.95
2022-11-13T18:51:14.733Z,50.60
2022-11-13T18:54:09.468Z,51.37
2022-11-13T18:59:41.004Z,63.97
2022-11-13T19:02:27.509Z,55.25
2022-11-13T19:05:13.281Z,50.75
2022-11-13T19:07:58.627Z,55.40
2022-11-13T19:10:43.978Z,56.50
2022-11-13T19:13:29.349Z,60.25
2022-11-13T19:16:18.718Z,60.50
2022-11-13T19:19:07.691Z,64.62
2022-11-13T19:21:53.058Z,69.93
2022-11-13T19:24:39.687Z,54.85
2022-11-13T19:27:25.540Z,55.08
2022-11-13T19:30:10.970Z,50.90
2022-11-13T19:32:56.551Z,57.33
2022-11-13T19:35:41.963Z,47.03
2022-11-13T19:38:28.785Z,50.55
2022-11-13T19:41:14.264Z,54.35
2022-11-13T19:44:00.239Z,65.87
2022-11-13T19:46:45.825Z,54.40
2022-11-13T19:49:31.413Z,50.63
2022-11-13T19:52:16.590Z,46.50
2022-11-13T19:55:02.852Z,45.08
2022-11-13T19:57:50.095Z,47.95
2022-11-13T20:00:36.306Z,57.80
2022-11-13T20:03:24.435Z,52.92
2022-11-13T20:06:12.731Z,54.97
2022-11-13T20:08:59.668Z,48.10
2022-11-13T20:11:45.828Z,43.47
2022-11-13T20:14:36.986Z,46.85
2022-11-13T20:17:24.028Z,51.42
2022-11-13T20:20:09.742Z,48.45
2022-11-13T20:22:55.287Z,44.40
2022-11-13T20:25:40.572Z,46.70
2022-11-13T20:28:28.388Z,43.45
2022-11-13T20:31:22.542Z,44.50
2022-11-13T20:34:08.886Z,46.33
2022-11-13T20:36:54.138Z,44.75
2022-11-13T20:39:41.911Z,38.83
2022-11-13T20:42:27.865Z,42.90
2022-11-13T20:45:13.488Z,40.65
2022-11-13T20:47:58.839Z,40.88
2022-11-13T20:50:44.842Z,43.78
2022-11-13T20:53:30.138Z,47.22
2022-11-13T20:56:16.502Z,51.75
2022-11-13T20:59:04.047Z,45.63
2022-11-13T21:01:49.649Z,46.20
2022-11-13T21:04:35.415Z,46.17
2022-11-13T21:07:20.825Z,51.45
2022-11-13T21:10:06.869Z,53.60
2022-11-13T21:12:52.636Z,52.55
2022-11-13T21:15:38.463Z,56.67
2022-11-13T21:18:24.039Z,65.05
2022-11-13T21:21:19.352Z,65.93
2022-11-13T21:24:05.134Z,75.07
2022-11-13T21:26:50.859Z,66.68
2022-11-13T21:29:36.195Z,73.70
2022-11-13T21:32:21.482Z,71.43
2022-11-13T21:35:07.113Z,64.78
2022-11-13T21:37:52.711Z,63.95
2022-11-13T21:40:38.167Z,61.45
2022-11-13T21:43:25.097Z,59.22
2022-11-13T21:46:10.592Z,55.90
2022-11-13T21:49:02.324Z,51.58
2022-11-13T21:51:48.122Z,49.65
2022-11-13T21:54:33.681Z,47.70
2022-11-13T21:57:19.833Z,49.75
2022-11-13T22:00:05.921Z,104.90
2022-11-13T22:02:51.279Z,71.20
2022-11-13T22:05:36.590Z,148.93
2022-11-13T22:08:22.356Z,98.65
2022-11-13T22:11:07.663Z,58.53
2022-11-13T22:13:53.451Z,89.70
2022-11-13T22:16:41.437Z,95.82
2022-11-13T22:19:28.528Z,70.07
2022-11-13T22:22:17.217Z,53.78
2022-11-13T22:25:02.454Z,92.50
2022-11-13T22:27:47.748Z,81.60
2022-11-13T22:30:34.081Z,54.85
2022-11-13T22:33:19.468Z,55.47
2022-11-13T22:36:10.287Z,91.80
2022-11-13T22:38:57.271Z,78.68
2022-11-13T22:41:42.853Z,63.13
2022-11-13T22:44:45.469Z,73.22
2022-11-13T22:50:24.130Z,35.30
2022-11-13T22:53:10.276Z,52.88
2022-11-13T22:56:01.478Z,68.12
2022-11-13T22:58:46.957Z,59.13
2022-11-13T23:01:38.204Z,59.40
2022-11-13T23:04:23.503Z,94.40
2022-11-13T23:07:09.370Z,50.10
2022-11-13T23:09:54.829Z,65.40
2022-11-13T23:12:40.084Z,44.08
2022-11-13T23:15:25.476Z,48.70
2022-11-13T23:18:10.966Z,46.78
2022-11-13T23:20:56.246Z,51.33
2022-11-13T23:23:41.727Z,36.53
2022-11-13T23:26:28.418Z,38.90
2022-11-13T23:29:14.531Z,35.83
2022-11-13T23:31:59.848Z,38.33
2022-11-13T23:35:00.599Z,33.25
2022-11-13T23:37:46.727Z,32.70
2022-11-13T23:40:32.244Z,32.97
2022-11-13T23:43:17.737Z,31.20
2022-11-13T23:46:03.172Z,32.25
2022-11-13T23:48:48.551Z,32.00
2022-11-13T23:51:33.842Z,30.20
2022-11-13T23:54:19.333Z,28.33
2022-11-13T23:57:04.642Z,30.90
2022-11-13T23:59:49.959Z,34.47
